createdAt,value
2018-04-16T00:01:57.172Z,13.20
2018-04-16T00:04:24.624Z,13.20
2018-04-16T00:06:52.815Z,13.10
2018-04-16T00:09:20.265Z,13.10
2018-04-16T00:11:47.705Z,13.00
2018-04-16T00:14:15.126Z,13.00
2018-04-16T00:16:43.363Z,13.00
2018-04-16T00:19:10.906Z,13.00
2018-04-16T00:21:38.323Z,13.00
2018-04-16T00:24:06.519Z,13.00
2018-04-16T00:26:33.958Z,13.00
2018-04-16T00:29:02.159Z,13.00
2018-04-16T00:31:35.242Z,13.00
2018-04-16T00:34:08.459Z,13.00
2018-04-16T00:36:41.725Z,13.00
2018-04-16T00:42:19.652Z,13.10
2018-04-16T00:44:52.719Z,13.10
2018-04-16T00:47:26.635Z,13.10
2018-04-16T00:50:00.527Z,13.20
2018-04-16T00:52:34.769Z,13.20
2018-04-16T00:55:07.883Z,13.10
2018-04-16T00:57:41.023Z,13.20
2018-04-16T01:00:14.244Z,13.20
2018-04-16T01:02:47.312Z,13.20
2018-04-16T01:05:21.306Z,13.20
2018-04-16T01:07:54.446Z,13.10
2018-04-16T01:10:27.504Z,13.10
2018-04-16T01:13:01.551Z,13.10
2018-04-16T01:15:34.665Z,13.10
2018-04-16T01:18:07.854Z,13.10
2018-04-16T01:20:40.975Z,13.10
2018-04-16T01:23:14.937Z,13.10
2018-04-16T01:25:48.003Z,13.00
2018-04-16T01:28:21.155Z,13.10
2018-04-16T01:30:54.249Z,13.00
2018-04-16T01:33:27.393Z,13.00
2018-04-16T01:36:00.499Z,13.00
2018-04-16T01:38:33.687Z,13.10
2018-04-16T01:41:07.059Z,13.10
2018-04-16T01:43:51.187Z,13.00
2018-04-16T01:46:25.109Z,13.00
2018-04-16T01:48:58.368Z,13.00
2018-04-16T01:51:31.470Z,13.00
2018-04-16T01:54:05.485Z,13.00
2018-04-16T01:56:39.415Z,13.00
2018-04-16T01:59:26.603Z,13.00
2018-04-16T02:02:00.644Z,13.00
2018-04-16T02:04:33.752Z,13.00
2018-04-16T02:07:06.822Z,13.00
2018-04-16T02:09:40.103Z,13.00
2018-04-16T02:12:14.127Z,13.00
2018-04-16T02:14:47.322Z,12.90
2018-04-16T02:17:20.531Z,12.90
2018-04-16T02:19:53.650Z,12.90
2018-04-16T02:22:26.811Z,12.90
2018-04-16T02:24:59.905Z,12.90
2018-04-16T02:27:32.943Z,12.80
2018-04-16T02:30:06.079Z,12.80
2018-04-16T02:32:39.075Z,12.80
2018-04-16T02:35:12.267Z,12.80
2018-04-16T02:37:45.407Z,12.70
2018-04-16T02:40:19.243Z,12.70
2018-04-16T02:42:52.344Z,12.70
2018-04-16T02:45:25.575Z,12.60
2018-04-16T02:47:58.863Z,12.60
2018-04-16T02:50:31.996Z,12.60
2018-04-16T02:53:05.228Z,12.50
2018-04-16T02:55:38.391Z,12.50
2018-04-16T02:58:11.550Z,12.40
2018-04-16T03:00:54.775Z,12.40
2018-04-16T03:03:27.886Z,12.40
2018-04-16T03:06:01.821Z,12.20
2018-04-16T03:08:34.898Z,12.20
2018-04-16T03:11:08.020Z,12.20
2018-04-16T03:13:41.110Z,12.10
2018-04-16T03:16:14.982Z,12.10
2018-04-16T03:18:48.052Z,12.00
2018-04-16T03:21:21.875Z,11.90
2018-04-16T03:23:55.146Z,11.90
2018-04-16T03:26:29.211Z,11.80
2018-04-16T03:29:02.603Z,11.80
2018-04-16T03:31:35.883Z,11.80
2018-04-16T03:34:08.947Z,11.70
2018-04-16T03:36:57.050Z,11.60
2018-04-16T03:39:30.180Z,11.60
2018-04-16T03:42:04.232Z,11.50
2018-04-16T03:44:37.275Z,11.50
2018-04-16T03:47:11.312Z,11.40
2018-04-16T03:49:44.515Z,11.40
2018-04-16T03:52:17.547Z,11.40
2018-04-16T03:55:03.698Z,11.30
2018-04-16T03:57:31.167Z,11.30
2018-04-16T03:59:58.618Z,11.20
2018-04-16T04:02:26.062Z,11.20
2018-04-16T04:04:53.573Z,11.20
2018-04-16T04:07:21.006Z,11.10
2018-04-16T04:09:48.555Z,11.10
2018-04-16T04:12:16.111Z,11.00
2018-04-16T04:14:43.579Z,11.00
2018-04-16T04:17:11.018Z,11.00
2018-04-16T04:19:38.486Z,10.90
2018-04-16T04:22:05.919Z,10.90
2018-04-16T04:24:45.066Z,10.80
2018-04-16T04:27:24.203Z,10.80
2018-04-16T04:30:03.463Z,10.70
2018-04-16T04:32:30.898Z,10.70
2018-04-16T04:34:58.351Z,10.70
2018-04-16T04:37:25.796Z,10.60
2018-04-16T04:39:53.246Z,10.60
2018-04-16T04:42:20.723Z,10.50
2018-04-16T04:44:48.187Z,10.50
2018-04-16T04:47:15.627Z,10.50
2018-04-16T04:49:43.101Z,10.50
2018-04-16T04:52:10.555Z,10.50
2018-04-16T04:54:38.011Z,10.40
2018-04-16T04:57:05.451Z,10.40
2018-04-16T04:59:32.882Z,10.40
2018-04-16T05:02:01.103Z,10.50
2018-04-16T05:04:28.543Z,10.40
2018-04-16T05:06:56.001Z,10.50
2018-04-16T05:09:23.431Z,10.50
2018-04-16T05:11:50.924Z,10.50
2018-04-16T05:14:18.364Z,10.60
2018-04-16T05:16:45.808Z,10.60
2018-04-16T05:19:13.271Z,10.60
2018-04-16T05:21:40.757Z,10.60
2018-04-16T05:24:08.188Z,10.70
2018-04-16T05:26:35.673Z,10.70
2018-04-16T05:29:03.198Z,10.70
2018-04-16T05:31:31.393Z,10.80
2018-04-16T05:33:58.836Z,10.80
2018-04-16T05:36:26.315Z,10.80
2018-04-16T05:38:53.797Z,10.80
2018-04-16T05:41:21.227Z,10.90
2018-04-16T05:43:48.689Z,10.90
2018-04-16T05:46:16.121Z,10.90
2018-04-16T05:48:43.643Z,11.00
2018-04-16T05:51:11.084Z,11.00
2018-04-16T05:53:38.531Z,11.00
2018-04-16T05:56:05.980Z,11.00
2018-04-16T05:58:33.422Z,11.10
2018-04-16T06:01:00.866Z,11.20
2018-04-16T06:03:28.300Z,11.20
2018-04-16T06:05:56.621Z,11.30
2018-04-16T06:08:24.043Z,11.30
2018-04-16T06:10:52.255Z,11.40
2018-04-16T06:13:19.707Z,11.40
2018-04-16T06:15:47.162Z,11.50
2018-04-16T06:18:14.634Z,11.60
2018-04-16T06:20:42.083Z,11.60
2018-04-16T06:23:09.559Z,11.70
2018-04-16T06:25:36.980Z,11.70
2018-04-16T06:28:04.424Z,11.80
2018-04-16T06:30:31.867Z,11.80
2018-04-16T06:33:00.191Z,11.80
2018-04-16T06:35:27.639Z,11.80
2018-04-16T06:37:55.115Z,11.90
2018-04-16T06:40:22.563Z,11.90
2018-04-16T06:42:50.011Z,12.00
2018-04-16T06:45:17.508Z,12.00
2018-04-16T06:47:44.948Z,12.10
2018-04-16T06:50:12.392Z,12.30
2018-04-16T06:52:39.855Z,12.40
2018-04-16T06:55:07.306Z,12.50
2018-04-16T06:57:34.763Z,12.60
2018-04-16T07:00:02.236Z,12.70
2018-04-16T07:02:29.708Z,12.80
2018-04-16T07:04:57.160Z,12.80
2018-04-16T07:07:24.696Z,12.90
2018-04-16T07:09:52.178Z,12.90
2018-04-16T07:12:19.609Z,12.90
2018-04-16T07:14:47.067Z,12.90
2018-04-16T07:17:14.532Z,13.00
2018-04-16T07:19:41.980Z,13.00
2018-04-16T07:22:09.456Z,13.10
2018-04-16T07:24:36.897Z,13.10
2018-04-16T07:27:04.381Z,13.10
2018-04-16T07:29:31.827Z,13.10
2018-04-16T07:31:59.269Z,13.00
2018-04-16T07:34:26.726Z,13.00
2018-04-16T07:36:54.191Z,13.10
2018-04-16T07:39:21.631Z,13.20
2018-04-16T07:41:49.075Z,13.30
2018-04-16T07:44:16.557Z,13.40
2018-04-16T07:46:44.013Z,13.50
2018-04-16T07:49:11.579Z,13.60
2018-04-16T07:51:39.006Z,13.60
2018-04-16T07:54:06.453Z,13.70
2018-04-16T07:56:33.938Z,13.70
2018-04-16T07:59:01.698Z,13.80
2018-04-16T08:01:29.214Z,13.90
2018-04-16T08:03:56.599Z,13.90
2018-04-16T08:06:24.097Z,14.00
2018-04-16T08:08:51.535Z,14.00
2018-04-16T08:11:18.977Z,14.10
2018-04-16T08:13:46.427Z,14.20
2018-04-16T08:16:13.917Z,14.30
2018-04-16T08:18:41.355Z,14.40
2018-04-16T08:21:08.833Z,14.50
2018-04-16T08:23:36.299Z,14.50
2018-04-16T08:26:03.747Z,14.60
2018-04-16T08:28:31.174Z,14.60
2018-04-16T08:30:58.631Z,14.70
2018-04-16T08:33:26.092Z,14.80
2018-04-16T08:35:54.276Z,14.90
2018-04-16T08:38:21.719Z,14.90
2018-04-16T08:40:49.188Z,15.00
2018-04-16T08:43:16.599Z,15.10
2018-04-16T08:45:44.034Z,15.10
2018-04-16T08:48:11.467Z,15.10
2018-04-16T08:50:38.919Z,15.10
2018-04-16T08:53:06.386Z,15.20
2018-04-16T08:55:33.823Z,15.20
2018-04-16T08:58:01.299Z,15.30
2018-04-16T09:00:28.734Z,15.30
2018-04-16T09:02:56.174Z,15.40
2018-04-16T09:05:24.390Z,15.50
2018-04-16T09:07:51.851Z,15.50
2018-04-16T09:10:19.329Z,15.50
2018-04-16T09:12:46.779Z,15.60
2018-04-16T09:15:14.218Z,15.70
2018-04-16T09:17:41.678Z,15.80
2018-04-16T09:20:09.148Z,15.90
2018-04-16T09:22:36.590Z,15.80
2018-04-16T09:25:04.043Z,15.80
2018-04-16T09:27:31.494Z,15.90
2018-04-16T09:29:58.918Z,16.00
2018-04-16T09:32:27.144Z,16.20
2018-04-16T09:34:54.591Z,16.20
2018-04-16T09:37:22.049Z,16.30
2018-04-16T09:39:49.504Z,16.40
2018-04-16T09:42:16.948Z,16.40
2018-04-16T09:44:44.377Z,16.40
2018-04-16T09:47:12.593Z,16.40
2018-04-16T09:49:40.042Z,16.40
2018-04-16T09:52:07.505Z,16.40
2018-04-16T09:54:34.955Z,16.50
2018-04-16T09:57:02.437Z,16.50
2018-04-16T09:59:29.890Z,16.60
2018-04-16T10:01:57.334Z,16.60
2018-04-16T10:04:24.820Z,16.60
2018-04-16T10:06:52.250Z,16.60
2018-04-16T10:09:19.691Z,16.70
2018-04-16T10:11:47.130Z,16.80
2018-04-16T10:14:15.342Z,17.00
2018-04-16T10:16:42.794Z,16.90
2018-04-16T10:19:10.269Z,17.00
2018-04-16T10:21:37.712Z,17.10
2018-04-16T10:24:05.187Z,17.20
2018-04-16T10:26:32.753Z,17.40
2018-04-16T10:29:00.199Z,17.50
2018-04-16T10:31:27.630Z,17.60
2018-04-16T10:33:55.073Z,17.70
2018-04-16T10:36:23.296Z,17.40
2018-04-16T10:38:50.755Z,17.40
2018-04-16T10:41:18.204Z,17.30
2018-04-16T10:43:45.646Z,17.40
2018-04-16T10:46:13.116Z,17.50
2018-04-16T10:48:40.659Z,17.50
2018-04-16T10:51:08.134Z,17.50
2018-04-16T10:53:35.578Z,17.50
2018-04-16T10:56:03.240Z,17.60
2018-04-16T10:58:30.711Z,17.50
2018-04-16T11:00:58.221Z,17.30
2018-04-16T11:03:25.614Z,17.30
2018-04-16T11:05:53.081Z,17.30
2018-04-16T11:08:20.495Z,17.40
2018-04-16T11:10:47.996Z,17.50
2018-04-16T11:13:15.426Z,17.60
2018-04-16T11:15:42.886Z,17.70
2018-04-16T11:18:10.319Z,17.70
2018-04-16T11:20:38.602Z,18.00
2018-04-16T11:23:06.804Z,18.10
2018-04-16T11:25:34.363Z,18.10
2018-04-16T11:28:01.779Z,18.20
2018-04-16T11:30:29.986Z,18.40
2018-04-16T11:32:57.445Z,18.40
2018-04-16T11:35:24.880Z,18.30
2018-04-16T11:37:53.103Z,18.20
2018-04-16T11:40:20.522Z,18.20
2018-04-16T11:42:47.951Z,18.20
2018-04-16T11:45:16.195Z,18.60
2018-04-16T11:47:43.696Z,18.60
2018-04-16T11:50:11.904Z,18.70
2018-04-16T11:52:39.342Z,18.70
2018-04-16T11:55:06.787Z,18.50
2018-04-16T11:57:35.041Z,18.40
2018-04-16T12:00:02.440Z,18.40
2018-04-16T12:02:29.959Z,18.60
2018-04-16T12:04:57.487Z,18.70
2018-04-16T12:07:24.974Z,18.70
2018-04-16T12:09:52.427Z,18.70
2018-04-16T12:12:19.854Z,18.70
2018-04-16T12:14:47.293Z,18.50
2018-04-16T12:17:14.719Z,18.50
2018-04-16T12:19:42.924Z,18.60
2018-04-16T12:22:10.399Z,18.60
2018-04-16T12:24:37.903Z,18.40
2018-04-16T12:27:05.419Z,18.20
2018-04-16T12:29:32.871Z,18.10
2018-04-16T12:32:00.327Z,18.10
2018-04-16T12:34:27.778Z,18.40
2018-04-16T12:36:55.191Z,18.60
2018-04-16T12:39:23.388Z,18.60
2018-04-16T12:41:50.819Z,18.70
2018-04-16T12:44:19.025Z,18.60
2018-04-16T12:46:46.471Z,18.60
2018-04-16T12:49:13.910Z,18.80
2018-04-16T12:51:42.111Z,19.00
2018-04-16T12:54:09.551Z,19.00
2018-04-16T12:56:37.797Z,18.90
2018-04-16T12:59:05.256Z,18.90
2018-04-16T13:01:32.687Z,18.70
2018-04-16T13:04:00.107Z,18.70
2018-04-16T13:06:27.540Z,18.80
2018-04-16T13:08:54.980Z,19.00
2018-04-16T13:11:22.515Z,19.10
2018-04-16T13:13:49.964Z,19.20
2018-04-16T13:16:17.396Z,19.30
2018-04-16T13:18:44.858Z,19.40
2018-04-16T13:21:12.346Z,19.40
2018-04-16T13:23:39.790Z,19.50
2018-04-16T13:26:07.228Z,19.50
2018-04-16T13:28:34.675Z,19.60
2018-04-16T13:31:02.895Z,19.50
2018-04-16T13:33:30.344Z,19.50
2018-04-16T13:35:57.803Z,19.40
2018-04-16T13:38:25.235Z,19.20
2018-04-16T13:40:52.663Z,19.00
2018-04-16T13:43:20.924Z,19.00
2018-04-16T13:45:48.314Z,18.90
2018-04-16T13:48:16.523Z,19.20
2018-04-16T13:50:43.971Z,19.20
2018-04-16T13:53:11.418Z,19.50
2018-04-16T13:55:38.867Z,19.60
2018-04-16T13:58:06.354Z,19.60
2018-04-16T14:00:34.521Z,19.10
2018-04-16T14:03:02.089Z,19.10
2018-04-16T14:05:29.503Z,19.00
2018-04-16T14:07:56.939Z,19.30
2018-04-16T14:10:24.482Z,19.70
2018-04-16T14:12:51.938Z,20.10
2018-04-16T14:15:19.366Z,20.50
2018-04-16T14:17:46.818Z,20.80
2018-04-16T14:20:14.252Z,21.10
2018-04-16T14:22:41.687Z,21.00
2018-04-16T14:25:09.891Z,20.20
2018-04-16T14:27:37.323Z,20.20
2018-04-16T14:30:05.539Z,19.90
2018-04-16T14:32:32.964Z,20.00
2018-04-16T14:35:00.402Z,19.90
2018-04-16T14:37:27.842Z,19.90
2018-04-16T14:39:55.275Z,20.00
2018-04-16T14:42:22.723Z,20.40
2018-04-16T14:44:50.147Z,20.80
2018-04-16T14:47:17.602Z,21.10
2018-04-16T14:49:45.965Z,21.20
2018-04-16T14:52:13.453Z,21.20
2018-04-16T14:54:40.883Z,21.30
2018-04-16T14:57:09.101Z,21.00
2018-04-16T14:59:36.575Z,21.00
2018-04-16T15:02:04.031Z,20.60
2018-04-16T15:04:31.471Z,20.60
2018-04-16T15:06:58.920Z,20.70
2018-04-16T15:09:26.348Z,20.80
2018-04-16T15:11:54.595Z,20.90
2018-04-16T15:14:22.038Z,20.90
2018-04-16T15:16:49.491Z,20.50
2018-04-16T15:19:16.987Z,20.50
2018-04-16T15:21:44.527Z,20.80
2018-04-16T15:24:11.968Z,20.80
2018-04-16T15:26:39.444Z,20.70
2018-04-16T15:29:06.908Z,20.60
2018-04-16T15:31:34.376Z,20.30
2018-04-16T15:34:01.896Z,21.70
2018-04-16T15:36:29.321Z,20.90
2018-04-16T15:38:56.816Z,21.50
2018-04-16T15:41:24.267Z,22.00
2018-04-16T15:43:51.731Z,22.40
2018-04-16T15:46:19.191Z,22.30
2018-04-16T15:48:46.644Z,21.80
2018-04-16T15:51:14.083Z,21.50
2018-04-16T15:53:41.559Z,21.30
2018-04-16T15:56:08.999Z,20.80
2018-04-16T15:58:36.471Z,20.80
2018-04-16T16:01:03.927Z,21.30
2018-04-16T16:03:31.367Z,21.60
2018-04-16T16:05:58.824Z,22.00
2018-04-16T16:08:26.280Z,22.40
2018-04-16T16:10:53.807Z,22.80
2018-04-16T16:13:22.050Z,23.10
2018-04-16T16:15:49.553Z,23.10
2018-04-16T16:18:17.065Z,22.60
2018-04-16T16:20:44.527Z,21.90
2018-04-16T16:23:12.072Z,21.20
2018-04-16T16:25:39.503Z,20.80
2018-04-16T16:28:06.985Z,20.50
2018-04-16T16:30:35.466Z,20.00
2018-04-16T16:33:02.919Z,19.70
2018-04-16T16:35:30.358Z,19.30
2018-04-16T16:37:57.802Z,19.10
2018-04-16T16:40:25.247Z,18.90
2018-04-16T16:42:52.696Z,18.80
2018-04-16T16:45:20.138Z,18.60
2018-04-16T16:47:47.572Z,18.40
2018-04-16T16:50:15.774Z,18.30
2018-04-16T16:52:43.272Z,18.20
2018-04-16T16:55:10.816Z,18.10
2018-04-16T16:57:38.265Z,18.10
2018-04-16T17:00:05.697Z,18.00
2018-04-16T17:02:33.165Z,17.80
2018-04-16T17:05:01.441Z,17.60
2018-04-16T17:07:28.890Z,17.60
2018-04-16T17:09:56.428Z,17.50
2018-04-16T17:12:24.631Z,17.30
2018-04-16T17:14:52.071Z,17.40
2018-04-16T17:17:19.579Z,17.30
2018-04-16T17:19:47.007Z,17.20
2018-04-16T17:22:14.479Z,17.10
2018-04-16T17:24:41.935Z,17.10
2018-04-16T17:27:09.372Z,17.00
2018-04-16T17:29:36.852Z,16.80
2018-04-16T17:32:04.287Z,16.80
2018-04-16T17:34:31.741Z,16.70
2018-04-16T17:36:59.172Z,16.60
2018-04-16T17:39:27.464Z,16.50
2018-04-16T17:41:54.967Z,16.50
2018-04-16T17:44:22.398Z,16.40
2018-04-16T17:46:49.830Z,16.30
2018-04-16T17:49:17.263Z,16.30
2018-04-16T17:51:45.482Z,16.20
2018-04-16T17:54:12.940Z,16.20
2018-04-16T17:56:40.403Z,16.20
2018-04-16T17:59:07.835Z,16.10
2018-04-16T18:01:35.267Z,16.00
2018-04-16T18:04:03.519Z,15.90
2018-04-16T18:06:30.947Z,15.90
2018-04-16T18:08:58.531Z,15.80
2018-04-16T18:11:25.955Z,15.70
2018-04-16T18:13:53.391Z,15.60
2018-04-16T18:16:21.598Z,15.50
2018-04-16T18:18:49.035Z,15.50
2018-04-16T18:21:16.529Z,15.40
2018-04-16T18:23:43.998Z,15.40
2018-04-16T18:26:11.443Z,15.30
2018-04-16T18:28:38.909Z,15.20
2018-04-16T18:31:06.339Z,15.10
2018-04-16T18:33:33.967Z,15.10
2018-04-16T18:36:02.188Z,14.90
2018-04-16T18:38:29.683Z,14.90
2018-04-16T18:40:57.924Z,14.80
2018-04-16T18:43:25.387Z,14.80
2018-04-16T18:45:52.961Z,14.70
2018-04-16T18:48:21.187Z,14.60
2018-04-16T18:50:48.667Z,14.60
2018-04-16T18:53:16.108Z,14.50
2018-04-16T18:55:43.583Z,14.50
2018-04-16T18:58:11.017Z,14.50
2018-04-16T19:00:38.463Z,14.40
2018-04-16T19:03:05.956Z,14.40
2018-04-16T19:05:33.420Z,14.30
2018-04-16T19:08:00.843Z,14.20
2018-04-16T19:10:28.319Z,14.20
2018-04-16T19:12:55.783Z,14.10
2018-04-16T19:15:23.295Z,14.00
2018-04-16T19:17:56.523Z,13.90
2018-04-16T19:20:29.820Z,13.90
2018-04-16T19:22:57.252Z,13.80
2018-04-16T19:25:25.471Z,13.70
2018-04-16T19:27:58.528Z,13.70
2018-04-16T19:30:26.100Z,13.70
2018-04-16T19:32:59.396Z,13.60
2018-04-16T19:35:26.807Z,13.50
2018-04-16T19:37:55.024Z,13.40
2018-04-16T19:40:22.451Z,13.40
2018-04-16T19:42:50.661Z,13.30
2018-04-16T19:45:18.115Z,13.30
2018-04-16T19:47:45.564Z,13.30
2018-04-16T19:50:13.754Z,13.20
2018-04-16T19:52:41.192Z,13.20
2018-04-16T19:55:08.659Z,13.10
2018-04-16T19:57:41.935Z,13.10
2018-04-16T20:00:09.427Z,13.10
2018-04-16T20:02:42.531Z,13.10
2018-04-16T20:05:09.960Z,13.00
2018-04-16T20:07:37.419Z,13.00
2018-04-16T20:10:04.886Z,13.00
2018-04-16T20:12:32.350Z,12.90
2018-04-16T20:14:59.788Z,12.90
2018-04-16T20:17:27.229Z,12.90
2018-04-16T20:19:54.663Z,12.80
2018-04-16T20:22:22.896Z,12.50
2018-04-16T20:24:50.405Z,12.50
2018-04-16T20:27:17.792Z,12.50
2018-04-16T20:29:45.251Z,12.40
2018-04-16T20:32:12.731Z,12.40
2018-04-16T20:34:40.175Z,12.30
2018-04-16T20:37:07.643Z,12.30
2018-04-16T20:39:35.079Z,12.20
2018-04-16T20:42:02.529Z,12.20
2018-04-16T20:44:29.959Z,12.10
2018-04-16T20:46:58.180Z,12.10
2018-04-16T20:49:25.627Z,12.10
2018-04-16T20:51:53.067Z,12.00
2018-04-16T20:54:20.492Z,12.00
2018-04-16T20:56:48.705Z,11.90
2018-04-16T20:59:16.147Z,11.90
2018-04-16T21:01:43.653Z,11.80
2018-04-16T21:04:11.105Z,11.80
2018-04-16T21:06:39.363Z,11.60
2018-04-16T21:09:06.836Z,11.60
2018-04-16T21:11:34.420Z,11.50
2018-04-16T21:14:01.871Z,11.40
2018-04-16T21:16:29.303Z,11.40
2018-04-16T21:18:56.747Z,11.30
2018-04-16T21:21:24.183Z,11.30
2018-04-16T21:23:51.683Z,11.20
2018-04-16T21:26:19.131Z,11.20
2018-04-16T21:28:46.588Z,11.20
2018-04-16T21:31:14.030Z,11.10
2018-04-16T21:33:41.471Z,11.00
2018-04-16T21:36:08.903Z,11.00
2018-04-16T21:38:37.165Z,10.90
2018-04-16T21:41:04.591Z,10.90
2018-04-16T21:43:32.043Z,10.90
2018-04-16T21:45:59.471Z,10.80
2018-04-16T21:48:26.963Z,10.70
2018-04-16T21:50:54.404Z,10.70
2018-04-16T21:53:21.839Z,10.60
2018-04-16T21:55:50.053Z,10.60
2018-04-16T21:58:17.506Z,10.60
2018-04-16T22:00:45.093Z,10.50
2018-04-16T22:03:12.580Z,10.40
2018-04-16T22:05:39.980Z,10.40
2018-04-16T22:08:07.439Z,10.40
2018-04-16T22:10:34.947Z,10.30
2018-04-16T22:13:02.314Z,10.20
2018-04-16T22:15:29.756Z,10.20
2018-04-16T22:17:57.970Z,10.00
2018-04-16T22:20:25.455Z,10.00
2018-04-16T22:22:52.889Z,10.00
2018-04-16T22:25:20.355Z,10.00
2018-04-16T22:27:47.833Z,9.90
2018-04-16T22:30:15.302Z,9.90
2018-04-16T22:32:42.699Z,9.80
2018-04-16T22:35:10.126Z,9.80
2018-04-16T22:37:37.592Z,9.80
2018-04-16T22:40:05.823Z,9.70
2018-04-16T22:42:33.279Z,9.70
2018-04-16T22:45:00.731Z,9.60
2018-04-16T22:47:28.184Z,9.60
2018-04-16T22:49:55.613Z,9.50
2018-04-16T22:52:23.835Z,9.40
2018-04-16T22:54:51.282Z,9.40
2018-04-16T22:57:18.733Z,9.30
2018-04-16T22:59:46.199Z,9.30
2018-04-16T23:02:13.656Z,9.30
2018-04-16T23:04:41.103Z,9.20
2018-04-16T23:07:08.569Z,9.10
2018-04-16T23:09:36.015Z,8.90
2018-04-16T23:12:03.515Z,8.80
2018-04-16T23:14:30.943Z,8.70
2018-04-16T23:16:59.149Z,8.70
2018-04-16T23:19:26.573Z,8.70
2018-04-16T23:21:54.781Z,8.70
2018-04-16T23:24:22.261Z,8.70
2018-04-16T23:26:49.703Z,8.80
2018-04-16T23:29:17.138Z,8.70
2018-04-16T23:31:44.586Z,8.70
2018-04-16T23:34:12.017Z,8.70
2018-04-16T23:36:39.439Z,8.60
2018-04-16T23:39:06.870Z,8.60
2018-04-16T23:41:34.336Z,8.60
2018-04-16T23:44:01.747Z,8.60
2018-04-16T23:46:29.167Z,8.60
2018-04-16T23:48:56.638Z,8.60
2018-04-16T23:51:24.063Z,8.50
2018-04-16T23:53:51.505Z,8.30
2018-04-16T23:56:18.932Z,8.30
2018-04-16T23:58:46.350Z,8.20
